Date,TemperatureHighF,TemperatureAvgF,TemperatureLowF,DewpointHighF,DewpointAvgF,DewpointLowF,HumidityHigh,HumidityAvg,HumidityLow,PressureMaxIn,PressureMinIn,WindSpeedMaxMPH,WindSpeedAvgMPH,GustSpeedMaxMPH,PrecipitationSumIn
2013-1-1,82.2,69.6,56.5,55.5,48.0,41.1,66,47,32,29.63,29.44,17,9,36,0.00
2013-1-2,77.0,67.9,56.3,63.0,54.3,49.4,93,63,48,29.49,29.17,18,9,42,0.16
2013-1-3,66.9,55.0,44.2,54.3,47.8,40.1,96,78,53,29.69,29.19,13,4,26,0.16
2013-1-4,71.6,55.9,37.6,55.0,44.8,34.7,91,68,44,29.88,29.70,10,4,23,0.00
2013-1-5,79.7,65.9,53.8,58.0,52.9,48.4,87,65,41,29.91,29.80,13,8,28,0.00
2013-1-6,72.0,63.3,56.8,61.2,56.4,53.2,92,79,61,29.94,29.74,18,6,32,0.00
2013-1-7,73.8,57.5,48.7,61.3,51.9,45.9,95,82,62,29.78,29.28,19,5,37,0.05
2013-1-8,70.0,58.8,48.6,55.1,49.5,44.3,95,73,51,29.53,29.26,10,5,20,0.02
2013-1-9,84.9,70.0,54.7,61.8,50.0,43.5,83,52,28,29.52,29.21,22,10,47,0.00
2013-1-10,81.0,73.2,60.1,62.1,50.0,41.7,68,46,27,29.62,29.15,20,10,40,0.00
2013-1-11,79.5,67.1,51.6,56.7,47.5,39.9,73,51,33,29.86,29.63,13,5,29,0.00
2013-1-12,89.1,71.3,52.2,57.9,49.7,37.8,92,53,17,29.86,29.59,7,2,16,0.00
2013-1-13,87.0,72.9,55.7,63.4,54.7,48.0,84,54,36,29.66,29.27,31,7,36,0.00
2013-1-14,64.8,59.6,54.3,55.7,52.0,49.6,87,76,60,29.55,29.46,7,2,17,0.00
2013-1-15,58.6,56.1,54.5,57.0,53.9,52.0,96,92,87,29.72,29.55,13,4,25,0.29
2013-1-16,63.9,54.9,50.2,56.0,51.7,48.8,96,89,68,29.72,29.42,8,2,20,0.00
2013-1-17,56.8,51.6,44.8,53.0,49.0,43.2,95,91,77,29.56,29.32,11,3,25,0.40
2013-1-18,64.0,52.6,38.1,52.3,44.7,37.1,97,76,53,29.69,29.55,15,5,26,0.07
2013-1-19,85.8,65.0,53.1,60.8,51.7,45.7,84,65,37,29.65,29.31,14,8,30,0.00
2013-1-20,75.7,61.7,43.7,57.9,52.3,41.2,94,74,43,29.73,29.53,18,5,20,0.00
2013-1-21,68.2,57.4,46.6,57.0,51.6,45.2,96,82,64,30.07,29.74,7,3,19,0.00
2013-1-22,73.8,63.0,54.5,62.9,57.0,50.7,95,82,65,30.09,29.96,11,6,22,0.00
2013-1-23,87.6,72.1,51.6,56.9,52.6,50.0,97,56,30,29.98,29.84,14,8,30,0.00
2013-1-24,64.9,59.2,54.0,57.2,51.8,47.3,94,77,60,30.46,29.94,14,5,25,0.04
2013-1-25,67.6,57.6,43.5,55.1,49.9,41.9,96,77,58,30.49,30.36,11,5,26,0.00
2013-1-26,71.1,62.1,55.9,55.9,53.0,50.7,86,73,55,30.42,30.34,13,9,32,0.00
2013-1-27,81.0,65.2,55.6,66.2,57.4,52.9,94,77,48,30.48,30.39,10,5,19,0.00
2013-1-28,77.9,63.5,51.1,66.3,57.4,49.4,96,82,60,30.50,30.30,10,4,19,0.00
2013-1-29,75.7,64.3,56.7,63.6,58.6,54.7,93,82,60,30.32,30.16,10,3,17,0.00
2013-1-30,80.1,66.5,54.9,64.6,59.5,52.9,95,79,55,30.21,30.00,12,6,23,0.00
2013-1-31,91.2,70.7,49.5,58.9,52.0,38.7,96,61,17,30.06,29.99,9,4,20,0.01
2013-2-1,82.4,67.4,55.2,68.4,59.3,53.8,96,78,47,30.03,29.78,7,3,14,0.00
2013-2-2,75.4,65.1,55.9,65.3,60.0,53.9,97,85,65,29.82,29.64,9,4,18,0.00
2013-2-3,79.2,66.6,56.7,61.3,57.9,55.0,96,76,51,29.87,29.70,9,4,19,0.00
2013-2-4,67.1,60.6,51.6,62.9,58.0,47.4,96,91,84,29.74,29.40,19,5,40,0.36
2013-2-5,62.4,53.7,47.8,47.6,45.3,41.9,91,74,51,30.16,29.71,18,9,34,0.15
2013-2-6,67.6,56.3,51.1,53.9,49.2,45.7,91,78,56,30.26,30.13,10,3,20,0.01
2013-2-7,69.4,57.4,44.2,57.1,51.1,42.9,96,81,60,30.27,30.20,11,3,26,0.00
2013-2-8,70.5,61.4,52.7,60.2,55.5,50.1,92,81,67,30.27,30.06,12,7,29,0.00
2013-2-9,76.5,61.8,52.2,65.8,57.8,51.1,97,88,66,30.07,29.99,9,3,16,0.00
2013-2-10,82.0,65.1,54.5,65.7,57.5,53.3,97,79,40,30.02,29.80,13,7,25,0.01
2013-2-11,80.1,64.5,57.0,66.8,57.2,50.5,97,79,56,29.91,29.69,18,7,32,0.00
2013-2-12,70.3,61.2,56.1,58.9,55.6,52.0,93,82,65,29.91,29.68,9,3,20,0.00
2013-2-13,65.1,55.9,48.4,57.9,51.1,45.1,96,85,61,29.91,29.66,13,4,26,0.04
2013-2-14,77.4,60.4,43.9,50.7,46.9,40.7,95,66,30,29.90,29.75,8,3,19,0.00
2013-2-15,71.2,61.7,52.5,58.4,54.2,47.2,92,77,61,29.96,29.83,9,4,23,0.02
2013-2-16,80.8,65.1,53.6,57.9,54.7,51.9,95,72,39,29.95,29.81,8,3,20,0.00
2013-2-17,68.7,58.4,48.4,55.4,52.4,45.9,94,81,59,30.23,29.96,8,5,17,0.01
2013-2-18,75.9,59.0,41.4,58.2,51.7,39.8,97,79,47,30.26,30.17,7,3,17,0.00
2013-2-19,78.1,64.1,50.7,60.9,52.7,43.7,97,71,31,30.25,30.06,13,7,30,0.01
2013-2-20,70.5,61.7,50.5,59.9,55.5,48.8,94,81,63,30.10,30.03,10,4,20,0.00
2013-2-21,73.4,57.2,46.4,59.1,52.1,45.2,97,84,53,30.24,29.95,16,5,26,0.00
2013-2-22,64.9,55.2,43.0,51.2,48.7,40.5,92,80,58,30.27,30.19,7,3,14,0.01
2013-2-23,68.9,53.1,39.9,53.6,46.8,38.3,96,81,55,30.35,30.24,8,2,16,0.01
2013-2-24,71.2,55.3,39.0,56.6,49.4,38.0,97,82,56,30.45,30.35,8,2,18,0.00
2013-2-25,70.5,60.5,54.7,57.6,54.5,51.8,92,81,61,30.44,30.30,12,5,26,0.00
2013-2-26,77.2,64.3,56.1,62.2,57.2,53.9,93,79,55,30.32,30.18,10,5,23,0.00
2013-2-27,75.6,64.2,55.6,63.0,58.3,53.8,95,82,60,30.23,30.03,9,3,26,0.00
2013-2-28,76.6,65.6,59.0,63.3,58.2,54.5,94,78,55,30.03,29.72,14,9,30,0.01
2013-3-1,70.5,62.4,55.2,60.1,57.0,53.5,96,83,65,29.92,29.74,13,5,24,0.00
2013-3-2,70.5,62.3,57.4,58.0,55.3,53.5,89,78,61,29.91,29.67,6,1,14,0.00
2013-3-3,63.7,58.2,53.8,57.3,51.2,46.7,93,78,61,29.84,29.64,11,5,22,0.03
2013-3-4,69.6,57.7,51.4,56.8,50.4,46.2,93,78,57,29.91,29.49,17,6,31,0.01
2013-3-5,73.0,58.2,45.9,53.8,49.6,44.2,96,75,45,29.96,29.80,10,3,24,0.01
2013-3-6,84.9,61.4,51.4,57.1,50.7,41.5,92,72,22,30.08,29.71,18,6,35,0.00
2013-3-7,66.4,57.1,50.4,55.4,51.9,47.9,96,83,65,30.09,29.95,11,5,26,0.03
2013-3-8,84.0,64.8,51.3,60.7,55.3,50.2,97,76,33,30.19,29.97,11,4,19,0.01
2013-3-9,68.2,60.4,55.9,57.6,55.0,53.1,93,83,64,30.22,30.06,9,5,24,0.00
2013-3-10,68.4,59.4,51.3,58.7,55.5,49.9,97,87,69,30.18,30.05,8,3,18,0.01
2013-3-11,68.5,59.6,51.6,59.4,53.5,48.8,97,81,51,30.24,30.00,12,4,23,0.00
2013-3-12,65.1,58.0,53.8,54.3,51.5,49.0,90,79,68,30.24,30.02,7,3,18,0.00
2013-3-13,72.0,60.6,54.9,58.1,53.2,51.1,90,78,57,30.01,29.89,6,2,14,0.00
2013-3-14,79.3,63.3,51.8,60.4,56.1,50.1,96,80,47,29.93,29.72,11,6,26,0.00
2013-3-15,75.0,61.7,49.8,62.3,56.7,48.6,97,85,59,30.01,29.78,7,2,13,0.00
2013-3-16,64.0,60.3,57.9,57.4,55.7,54.3,93,85,77,30.02,29.76,4,1,10,0.00
2013-3-17,72.1,61.1,55.0,63.1,57.8,53.5,97,89,69,29.75,29.33,12,4,26,0.35
2013-3-18,59.2,56.3,53.2,58.6,55.3,49.5,98,96,87,29.65,29.33,12,6,23,0.69
2013-3-19,55.9,51.4,47.7,51.4,48.5,46.0,95,90,77,30.10,29.65,10,3,20,0.13
2013-3-20,64.9,51.3,39.4,52.0,46.0,38.3,98,84,51,30.30,30.11,5,1,16,0.00
2013-3-21,65.8,52.9,39.7,54.1,47.0,38.7,97,82,53,30.38,30.30,9,3,19,0.00
2013-3-22,68.7,57.6,47.7,57.3,52.3,46.3,96,83,65,30.37,30.23,11,5,22,0.00
2013-3-23,74.3,60.2,48.7,54.3,50.9,46.0,96,75,37,30.25,30.07,7,4,18,0.00
2013-3-24,75.2,61.7,51.6,55.9,49.9,45.5,90,68,38,30.09,30.00,10,4,23,0.00
2013-3-25,80.2,66.3,53.4,52.0,49.7,47.7,82,57,35,30.02,29.83,14,6,29,0.00
2013-3-26,68.5,60.7,55.6,58.0,53.5,48.6,90,78,54,30.23,29.97,11,6,24,0.00
2013-3-27,64.8,56.4,48.6,58.3,53.6,47.5,97,91,77,30.28,30.17,10,2,20,0.00
2013-3-28,72.3,57.5,47.1,61.0,54.1,45.8,98,89,64,30.25,30.04,8,3,18,0.01
2013-3-29,77.4,61.0,53.4,61.9,55.7,50.7,96,84,49,30.04,29.73,10,4,17,0.00
2013-3-30,77.2,62.5,49.8,55.9,50.2,45.4,87,66,37,29.80,29.72,10,3,22,0.00
2013-3-31,75.4,62.8,55.9,60.7,55.6,50.2,95,79,45,29.72,29.42,11,4,23,0.13
2013-4-1,68.0,60.3,49.3,56.8,50.1,43.9,86,70,52,29.95,29.47,13,6,32,0.00
2013-4-2,72.7,60.0,51.6,56.5,51.8,46.4,93,76,48,29.95,29.62,9,4,16,0.00
2013-4-3,71.2,60.9,48.4,58.4,52.8,46.4,94,76,61,29.77,29.42,16,8,28,0.08
2013-4-4,62.4,50.5,40.5,50.8,44.9,38.2,97,83,51,30.06,29.77,6,2,14,0.02
2013-4-5,59.7,49.3,43.7,50.7,44.7,39.8,95,84,69,30.23,30.01,10,4,24,0.03
2013-4-6,56.1,47.6,40.3,48.2,43.5,39.0,96,86,65,30.31,30.23,9,2,17,0.01
2013-4-7,57.4,47.5,37.2,46.9,42.7,35.9,97,85,55,30.31,30.16,3,1,10,0.03
2013-4-8,64.0,50.9,39.9,50.6,45.2,39.1,97,83,53,30.15,29.98,7,1,13,0.01
2013-4-9,55.0,49.3,42.6,50.2,44.9,38.7,95,85,66,30.28,30.03,14,4,30,0.12
2013-4-10,58.1,47.1,32.7,48.8,42.4,31.7,97,85,64,30.27,30.05,7,3,19,0.00
2013-4-11,74.3,58.2,43.7,52.4,46.8,42.4,96,70,37,30.03,29.77,11,6,24,0.01
2013-4-12,65.3,56.9,44.2,53.1,48.1,41.4,91,73,47,30.24,29.82,11,5,22,0.00
2013-4-13,62.8,52.0,42.4,56.2,48.6,39.4,96,88,79,30.23,30.10,10,3,23,0.00
2013-4-14,65.7,52.6,39.6,56.0,48.9,38.8,98,88,63,30.11,29.87,10,4,20,0.01
2013-4-15,73.9,57.6,45.7,55.4,49.3,44.3,96,76,46,29.89,29.77,7,3,13,0.00
2013-4-16,61.9,53.4,42.6,56.0,50.1,40.7,96,89,75,29.83,29.74,7,2,16,0.15
2013-4-17,55.9,53.4,52.2,54.5,52.4,51.3,97,96,94,29.78,29.56,4,1,10,0.30
2013-4-18,56.5,52.9,49.5,52.6,50.9,46.9,97,93,85,29.86,29.64,15,4,19,0.00
2013-4-19,56.5,50.9,44.2,51.5,48.2,43.2,97,91,78,30.01,29.85,7,2,14,0.02
2013-4-20,53.4,50.1,48.0,51.8,48.6,46.1,98,95,87,30.03,29.97,14,4,17,0.23
2013-4-21,57.4,52.9,50.7,56.2,51.3,48.3,98,94,85,29.96,29.63,10,2,19,0.33
2013-4-22,57.6,50.9,42.4,55.8,49.8,41.9,98,96,90,29.63,29.49,3,0,7,0.01
2013-4-23,62.2,53.7,45.5,57.5,52.0,44.7,98,94,84,29.54,29.46,8,1,14,0.00
2013-4-24,63.1,52.6,44.2,56.3,50.0,43.2,98,92,72,29.49,29.43,8,2,14,0.02
2013-4-25,65.3,52.4,42.6,58.4,50.0,41.6,98,92,70,29.54,29.44,6,2,13,0.01
2013-4-26,60.1,52.8,44.2,53.4,48.5,42.9,97,86,56,29.64,29.38,13,4,28,0.02
2013-4-27,61.5,54.5,44.2,52.6,47.3,40.9,96,78,51,29.67,29.37,13,6,29,0.01
2013-4-28,73.8,60.0,46.2,56.2,48.5,43.2,93,68,40,29.77,29.62,13,5,30,0.00
2013-4-29,67.6,59.2,48.7,59.1,52.7,46.4,97,80,51,29.86,29.62,12,2,23,0.00
2013-4-30,54.0,49.6,41.0,53.1,48.0,39.7,98,94,84,30.18,29.86,24,6,31,1.48
2013-5-1,56.7,46.1,35.8,48.2,42.9,35.0,97,89,69,30.17,29.97,9,5,22,0.00
2013-5-2,54.5,48.3,42.3,50.5,46.0,40.7,96,92,85,29.94,29.72,9,3,18,0.11
2013-5-3,55.4,48.7,45.0,50.3,46.6,44.2,97,93,81,30.08,29.92,8,2,17,0.02
2013-5-4,63.0,56.2,50.7,57.4,52.6,48.5,94,88,80,29.89,29.34,14,9,30,0.00
2013-5-5,60.1,54.7,50.2,55.6,51.5,47.0,97,89,74,29.32,29.16,8,5,22,0.05
2013-5-6,53.4,48.5,44.2,52.6,47.4,42.3,97,96,91,29.90,29.29,32,16,35,1.24
2013-5-7,54.7,44.4,36.5,45.2,41.3,35.5,98,89,64,30.18,29.91,3,0,8,0.05
2013-5-8,56.8,42.5,31.6,49.0,39.7,30.6,97,90,70,30.24,30.17,5,1,12,0.00
2013-5-9,53.8,45.1,34.9,50.7,42.5,34.1,98,91,64,30.16,29.51,7,1,12,0.01
2013-5-10,52.3,46.9,39.9,47.6,41.5,35.5,94,82,70,30.18,29.59,18,8,34,0.10
2013-5-11,54.3,45.6,37.4,46.2,39.7,33.3,92,80,68,30.34,30.19,7,1,14,0.00
2013-5-12,69.6,51.9,39.7,58.2,47.4,38.2,96,85,63,30.35,30.22,7,2,12,0.00
2013-5-13,52.9,50.9,49.1,51.4,49.2,47.9,97,94,91,30.31,30.11,7,2,18,0.00
2013-5-14,61.3,50.8,39.4,56.1,48.8,38.6,97,93,81,30.09,29.85,7,3,13,0.00
2013-5-15,60.8,46.5,36.7,55.3,44.3,35.9,98,93,80,30.02,29.90,5,1,10,0.01
2013-5-16,58.1,50.8,45.7,55.5,49.4,44.9,98,95,86,30.00,29.81,11,4,22,0.00
2013-5-17,61.0,54.0,45.9,53.7,50.4,44.8,97,88,77,29.80,29.64,10,3,19,0.20
2013-5-18,53.6,52.0,51.4,52.5,51.1,50.5,98,97,95,29.64,29.43,11,5,16,0.16
2013-5-19,53.2,51.8,50.5,52.7,51.2,50.0,98,98,97,29.60,29.42,6,1,14,0.28
2013-5-20,56.5,50.7,47.1,53.9,49.8,46.3,98,97,90,29.70,29.59,5,1,12,0.01
2013-5-21,55.8,52.2,49.8,53.9,51.0,49.0,98,96,91,29.75,29.60,8,2,16,0.12
2013-5-22,56.5,52.0,45.7,53.8,50.5,44.1,97,95,88,29.59,29.34,4,1,8,0.06
2013-5-23,52.5,48.3,41.9,49.7,45.1,39.5,97,89,70,29.81,29.36,13,7,29,0.13
2013-5-24,51.3,42.6,37.6,43.9,39.6,35.7,97,90,62,30.00,29.83,5,1,11,0.01
2013-5-25,63.0,49.4,39.0,50.0,42.4,37.8,97,79,52,29.88,29.45,11,5,26,0.01
2013-5-26,66.7,54.9,41.7,49.1,38.9,31.4,75,56,36,29.45,29.08,14,6,35,0.00
2013-5-27,48.9,44.4,38.7,41.4,37.9,31.7,92,78,61,29.43,29.17,13,4,35,0.06
2013-5-28,44.8,38.5,32.2,36.1,31.6,27.7,91,77,57,29.93,29.44,14,5,31,0.23
2013-5-29,54.9,42.9,34.0,42.0,33.4,26.6,89,70,53,30.22,29.95,10,2,24,0.00
2013-5-30,55.4,41.9,30.7,43.5,36.7,27.6,92,82,59,30.30,30.22,7,3,11,0.00
2013-5-31,61.3,46.2,36.1,52.3,41.6,32.9,92,84,69,30.22,30.08,6,2,12,0.00
2013-6-1,57.6,49.6,41.5,51.3,45.2,38.5,92,85,75,30.08,29.70,9,5,16,0.00
2013-6-2,65.8,59.4,51.3,48.2,45.7,43.0,85,61,50,29.68,29.38,19,11,31,0.00
2013-6-3,57.0,48.1,43.9,47.7,45.1,42.3,96,90,60,29.59,29.42,12,5,24,0.37
2013-6-4,47.1,44.6,40.1,46.1,43.4,38.2,97,95,91,29.83,29.33,14,4,34,0.50
2013-6-5,49.1,39.1,32.4,41.0,35.8,30.6,96,89,66,30.13,29.84,2,0,6,0.01
2013-6-6,51.6,43.7,38.5,47.3,41.5,37.2,96,92,82,30.27,30.14,6,1,14,0.00
2013-6-7,55.0,44.1,37.8,47.8,41.1,36.7,97,90,74,30.26,30.08,10,6,20,0.01
2013-6-8,60.3,49.1,40.3,50.3,44.6,39.0,97,85,65,30.07,29.79,10,6,18,0.01
2013-6-9,54.3,48.5,39.6,50.9,46.4,38.5,97,92,87,30.14,29.85,7,2,18,0.00
2013-6-10,54.1,48.8,45.0,51.2,47.3,43.6,97,95,88,30.17,30.07,7,2,14,0.00
2013-6-11,52.0,47.8,40.6,51.2,46.5,39.0,97,95,93,30.07,30.00,7,1,12,0.01
2013-6-12,52.5,42.6,34.3,47.7,40.8,33.1,98,94,80,30.00,29.91,6,1,12,0.01
2013-6-13,51.1,44.7,37.6,47.4,43.0,36.8,98,94,84,30.00,29.83,5,1,10,0.02
2013-6-14,50.4,46.1,43.3,48.2,44.5,42.0,97,94,88,30.10,30.00,9,2,20,0.02
2013-6-15,48.6,45.5,41.5,46.1,43.8,39.9,96,94,90,30.04,29.91,6,2,13,0.08
2013-6-16,46.8,45.4,44.4,46.2,44.6,43.4,98,97,96,29.91,29.58,3,1,10,0.94
2013-6-17,51.3,49.1,45.9,50.7,48.6,45.3,98,98,98,29.57,29.36,11,5,22,0.83
2013-6-18,50.7,44.7,37.9,47.9,43.4,36.9,98,95,86,29.45,29.29,8,2,18,0.01
2013-6-19,47.5,45.1,43.0,46.9,44.3,42.2,98,97,96,29.29,29.05,6,1,12,0.36
2013-6-20,43.2,40.4,37.0,42.6,39.0,35.9,98,95,82,29.45,29.03,26,13,47,0.85
2013-6-21,43.2,38.3,34.0,40.9,36.2,32.3,96,92,80,29.79,29.47,19,7,36,0.62
2013-6-22,39.0,37.5,36.0,38.2,36.7,35.2,98,97,97,30.00,29.79,6,3,19,1.44
2013-6-23,48.6,36.1,29.1,43.3,34.4,28.1,98,94,78,30.01,29.89,6,1,11,0.01
2013-6-24,53.2,36.4,28.0,45.7,34.2,27.0,98,92,66,30.04,29.92,6,1,8,0.01
2013-6-25,51.6,37.1,28.8,40.9,33.3,27.3,96,87,63,30.07,30.02,4,1,10,0.01
2013-6-26,51.3,38.8,28.4,46.0,36.1,26.9,95,90,77,30.16,30.05,8,1,18,0.00
2013-6-27,48.8,40.4,30.8,44.1,37.4,29.5,97,90,79,30.18,30.10,19,4,19,0.13
2013-6-28,49.9,42.3,30.7,43.5,39.3,29.5,96,89,75,30.18,30.13,12,4,12,0.04
2013-6-29,44.6,34.5,27.0,41.0,33.0,26.0,98,94,83,30.15,30.02,5,1,10,0.01
2013-6-30,54.1,41.2,34.3,47.4,38.5,33.1,97,90,77,30.01,29.92,7,4,11,0.01
2013-7-1,60.4,44.7,33.1,48.1,38.3,31.3,97,80,53,29.96,29.84,10,5,22,0.00
2013-7-2,66.2,55.8,46.8,49.1,43.1,39.9,77,63,47,29.87,29.76,16,6,32,0.01
2013-7-3,65.7,52.5,43.0,49.1,42.6,39.7,94,71,47,29.87,29.58,13,7,29,0.00
2013-7-4,52.5,46.6,39.7,48.5,44.4,38.7,97,92,84,30.02,29.80,22,13,23,0.00
2013-7-5,64.9,54.6,45.0,45.9,40.8,35.1,94,61,44,29.78,29.49,17,10,36,0.01
2013-7-6,60.9,55.2,45.0,47.8,43.4,35.8,88,66,47,29.52,29.24,56,22,58,0.04
2013-7-7,55.9,49.1,38.1,43.6,38.5,31.9,85,67,52,29.64,29.41,18,8,31,0.00
2013-7-8,50.4,38.0,29.7,41.7,33.7,27.3,94,85,67,29.93,29.67,5,1,12,0.00
2013-7-9,46.0,41.6,29.8,42.9,37.8,28.6,96,86,76,30.06,29.80,15,4,22,0.01
2013-7-10,46.8,39.6,33.4,43.1,37.6,32.2,96,92,86,30.51,30.09,8,2,19,0.20
2013-7-11,47.7,36.4,29.8,40.5,33.6,28.3,96,90,72,30.52,30.42,5,1,11,0.00
2013-7-12,46.8,35.2,25.5,39.6,32.1,23.8,95,89,71,30.46,30.20,3,0,6,0.00
2013-7-13,46.9,41.3,36.7,46.1,40.4,35.9,98,97,91,30.19,29.73,9,2,14,0.14
2013-7-14,44.2,40.6,37.0,42.1,38.3,33.8,98,92,78,29.98,29.67,19,9,38,0.26
2013-7-15,45.5,42.4,37.9,43.6,40.2,34.3,95,92,79,30.21,29.95,11,5,23,0.37
2013-7-16,46.4,38.7,30.6,43.8,36.8,29.0,97,93,88,30.26,30.17,10,4,17,0.00
2013-7-17,59.5,44.8,35.4,48.7,40.9,33.6,97,87,67,30.22,30.11,6,3,11,0.01
2013-7-18,55.8,49.3,40.6,50.8,45.4,38.2,92,87,74,30.19,30.06,5,2,10,0.00
2013-7-19,50.4,46.4,38.5,48.5,44.5,36.6,96,93,90,30.25,30.16,5,1,12,0.01
2013-7-20,51.6,47.7,45.1,48.8,46.0,44.3,97,94,89,30.24,30.05,13,9,23,0.00
2013-7-21,62.4,47.1,37.6,54.8,44.0,36.8,98,90,64,30.05,29.97,7,2,12,0.00
2013-7-22,61.5,50.9,44.2,52.8,45.3,41.3,92,81,61,30.03,29.84,10,6,19,0.00
2013-7-23,53.4,49.1,43.2,49.4,46.4,42.1,97,91,80,29.89,29.69,6,1,10,0.15
2013-7-24,58.5,43.5,34.9,50.9,40.8,34.1,98,91,69,29.67,29.45,7,1,16,0.01
2013-7-25,61.0,45.4,34.3,49.2,38.6,32.3,94,79,52,29.63,29.45,5,2,12,0.00
2013-7-26,61.5,44.7,32.5,47.1,36.8,29.2,91,75,51,29.99,29.66,7,2,12,0.00
2013-7-27,58.8,46.1,38.7,49.5,41.1,36.6,94,84,64,30.18,30.00,5,2,10,0.00
2013-7-28,59.5,44.6,34.7,47.4,39.7,32.9,95,84,58,30.28,30.18,4,1,7,0.00
2013-7-29,57.9,43.0,32.9,45.9,38.6,31.1,95,85,60,30.39,30.29,9,2,14,0.00
2013-7-30,56.1,47.0,38.5,50.7,44.2,37.4,97,90,81,30.31,30.21,11,6,20,0.00
2013-7-31,47.7,41.9,36.0,45.6,40.9,34.9,98,96,89,30.26,30.14,9,2,16,0.00
2013-8-1,51.6,41.0,32.4,47.6,38.6,30.8,97,91,81,30.32,30.25,4,1,11,0.00
2013-8-2,50.5,45.8,41.7,47.1,44.5,40.9,98,95,88,30.30,30.05,2,0,6,0.01
2013-8-3,52.9,49.2,45.7,50.3,47.7,44.9,98,95,90,30.04,29.76,13,7,29,0.14
2013-8-4,53.6,51.1,48.9,50.1,48.7,47.3,95,91,86,29.79,29.71,14,9,30,0.01
2013-8-5,57.9,50.7,47.7,53.6,48.8,45.4,97,93,81,29.80,29.62,13,7,20,0.00
2013-8-6,56.5,49.3,41.7,49.9,44.4,39.0,94,83,72,29.78,29.62,4,1,10,0.00
2013-8-7,62.4,48.8,36.0,50.7,43.2,34.1,97,82,61,29.78,29.54,14,5,25,0.00
2013-8-8,59.2,48.5,40.8,48.6,42.3,37.8,93,80,63,29.86,29.66,7,3,14,0.00
2013-8-9,52.0,43.7,35.2,48.6,41.3,33.7,97,91,85,29.99,29.88,4,1,8,0.00
2013-8-10,49.3,44.6,37.0,48.2,43.4,35.4,97,95,92,29.91,29.49,9,4,20,0.01
2013-8-11,52.9,50.7,48.9,51.8,49.6,47.8,97,96,94,29.47,29.22,15,9,26,0.01
2013-8-12,51.8,48.3,45.0,49.5,46.5,43.0,97,94,89,29.54,29.29,9,3,16,0.24
2013-8-13,51.1,45.7,36.0,47.2,43.2,34.4,98,91,85,29.53,29.01,14,6,26,0.00
2013-8-14,59.7,47.9,37.4,45.1,38.3,32.3,96,73,37,29.50,29.04,8,1,18,0.02
2013-8-15,66.0,52.9,40.6,48.4,42.1,37.3,88,68,48,29.64,29.50,10,5,20,0.00
2013-8-16,61.0,51.5,43.2,51.4,45.9,40.0,93,82,66,29.79,29.62,7,3,13,0.00
2013-8-17,52.7,49.5,48.2,51.6,48.3,46.7,97,96,90,29.90,29.80,11,2,17,0.31
2013-8-18,52.3,50.4,48.4,50.8,49.3,47.8,98,96,92,29.97,29.88,11,5,17,0.20
2013-8-19,54.0,50.5,47.8,50.2,47.7,45.6,96,90,85,30.01,29.93,13,9,20,0.00
2013-8-20,54.1,49.9,47.3,49.1,46.7,45.4,94,89,81,29.94,29.77,16,11,29,0.00
2013-8-21,56.1,50.7,46.9,51.0,47.8,45.5,95,90,82,29.77,29.60,14,9,23,0.01
2013-8-22,63.9,54.0,49.5,53.9,49.7,47.5,93,86,69,29.58,29.51,15,9,24,0.00
2013-8-23,63.0,49.2,37.4,51.7,42.9,36.4,97,80,47,29.71,29.57,15,6,16,0.00
2013-8-24,56.7,46.4,37.0,47.5,41.8,36.5,98,85,63,29.71,29.53,11,6,19,0.01
2013-8-25,54.7,47.4,42.3,49.2,43.6,39.7,96,87,74,29.63,29.50,12,3,18,0.01
2013-8-26,59.2,49.7,43.2,52.3,45.6,40.7,95,86,71,29.78,29.51,9,4,19,0.02
2013-8-27,44.2,43.0,42.1,38.8,38.2,37.5,87,83,80,29.75,29.74,4,3,7,0.00
2013-8-28,45.1,40.8,39.0,43.1,38.5,36.3,95,91,87,29.75,29.65,13,4,26,0.17
2013-8-29,54.1,44.0,32.7,44.6,37.2,31.4,96,79,47,30.08,29.74,8,2,22,0.28
2013-8-30,51.8,45.3,36.0,44.6,41.0,34.4,94,85,74,30.34,30.09,11,4,22,0.02
2013-8-31,52.0,43.0,32.5,44.6,39.4,31.5,97,88,73,30.37,30.28,14,8,26,0.01
2013-9-1,54.7,45.9,37.9,47.4,42.2,36.3,96,87,76,30.47,30.37,11,6,20,0.01
2013-9-2,55.8,43.8,30.6,48.7,40.9,29.6,98,90,75,30.45,30.26,14,6,28,0.01
2013-9-3,59.2,46.9,35.8,49.6,43.2,34.8,97,88,64,30.23,29.95,12,4,24,0.01
2013-9-4,47.7,44.6,40.6,44.5,41.0,33.7,94,87,76,30.12,29.65,25,12,47,0.35
2013-9-5,51.3,43.6,37.6,43.5,39.1,35.7,94,85,63,30.19,30.08,11,3,20,0.20
2013-9-6,61.9,47.8,34.9,51.8,42.1,33.1,95,81,62,30.06,29.77,10,4,17,0.00
2013-9-7,65.5,51.5,39.0,53.1,42.1,36.1,89,71,51,29.80,29.51,15,4,29,0.00
2013-9-8,58.5,49.4,40.6,50.9,42.3,36.4,92,77,60,29.67,29.49,13,6,25,0.01
2013-9-9,57.4,48.3,38.5,48.3,39.8,33.2,92,73,56,29.65,29.44,15,7,30,0.00
2013-9-10,68.4,56.6,44.2,48.2,40.0,32.6,71,54,43,29.64,29.03,34,13,68,0.00
2013-9-11,67.2,60.2,54.3,60.0,51.9,41.0,90,75,58,29.31,29.10,46,18,52,0.18
2013-9-12,58.5,51.0,40.5,48.1,42.4,37.8,92,73,47,29.60,29.19,16,7,41,0.00
2013-9-13,60.3,48.2,38.7,40.2,35.4,29.7,81,63,34,29.58,29.45,8,3,17,0.00
2013-9-14,58.8,46.9,38.3,44.8,39.6,31.9,95,77,44,29.57,29.39,10,1,22,0.00
2013-9-15,51.4,43.2,34.0,39.1,33.4,29.4,88,69,54,29.91,29.62,19,6,36,0.02
2013-9-16,57.0,45.0,35.1,49.0,38.8,32.3,91,80,63,29.92,29.73,7,3,13,0.00
2013-9-17,52.9,44.3,36.5,42.4,38.6,34.7,94,81,56,30.21,29.92,15,5,31,0.00
2013-9-18,60.6,44.7,32.7,47.3,39.8,31.4,96,84,61,30.18,30.03,11,4,22,0.00
2013-9-19,60.3,46.2,34.7,49.3,41.9,33.2,97,86,64,30.04,29.67,9,2,16,0.01
2013-9-20,57.6,49.5,40.6,52.5,46.4,39.0,96,89,79,29.64,29.52,11,2,19,0.00
2013-9-21,61.3,53.8,47.8,57.9,50.1,44.6,97,87,68,29.61,29.52,8,3,19,0.06
2013-9-22,51.8,48.9,43.9,50.7,47.8,42.8,98,96,94,29.62,29.50,5,1,12,0.19
2013-9-23,59.4,50.9,45.0,54.1,49.2,44.2,98,94,79,30.03,29.57,8,2,17,0.06
2013-9-24,55.4,50.2,46.2,51.6,48.2,43.4,98,93,85,30.15,30.03,7,3,18,0.02
2013-9-25,50.2,46.6,45.3,48.5,44.9,43.1,96,94,91,30.03,29.79,9,2,14,0.02
2013-9-26,60.1,50.7,45.1,55.9,48.8,44.0,98,93,84,29.66,29.43,22,7,23,0.03
2013-9-27,57.6,45.7,38.6,51.8,43.8,37.8,98,93,76,29.67,29.20,19,3,40,0.02
2013-9-28,56.7,49.0,43.3,52.5,46.2,41.5,97,90,77,29.42,29.09,8,3,18,0.06
2013-9-29,55.6,48.4,45.5,51.9,45.9,44.1,97,91,81,29.54,29.44,5,2,13,0.03
2013-9-30,59.7,50.7,46.2,54.3,47.3,44.5,97,89,73,29.79,29.54,7,2,16,0.01
2013-10-1,64.8,53.5,45.5,54.7,48.4,44.5,97,84,65,29.83,29.74,13,8,25,0.01
2013-10-2,65.8,57.2,50.5,53.8,48.8,45.0,91,74,52,29.86,29.61,16,5,31,0.01
2013-10-3,64.4,54.9,45.7,57.0,51.0,44.6,96,87,73,29.89,29.63,7,3,16,0.01
2013-10-4,64.9,55.8,48.7,57.4,51.7,47.3,95,86,69,29.86,29.65,12,2,20,0.00
2013-10-5,62.2,53.3,47.3,57.7,51.1,46.2,98,92,82,29.86,29.64,10,2,17,0.00
2013-10-6,76.1,59.8,48.2,61.2,51.9,44.1,98,78,44,29.64,29.37,10,3,18,0.01
2013-10-7,61.0,52.7,44.1,51.3,44.7,39.8,96,76,51,29.57,29.29,17,5,30,0.15
2013-10-8,44.4,42.0,37.8,43.4,41.0,36.7,97,96,95,29.57,29.51,2,0,10,1.33
2013-10-9,45.9,40.3,35.4,40.9,38.0,34.1,97,92,81,29.65,29.53,4,0,10,0.69
2013-10-10,56.1,44.0,30.7,48.3,40.1,29.7,97,87,64,29.62,29.13,10,3,22,0.01
2013-10-11,56.3,48.1,37.9,49.9,44.8,36.6,97,89,75,29.30,29.05,8,2,19,0.00
2013-10-12,60.1,48.5,42.4,53.2,45.2,41.1,96,89,69,29.49,29.08,9,1,22,0.24
2013-10-13,71.2,52.4,34.5,59.8,45.3,33.8,98,79,47,29.58,29.40,12,6,26,0.00
2013-10-14,65.7,59.5,47.1,60.3,49.9,42.0,92,72,48,29.39,28.78,21,11,49,0.15
2013-10-15,62.4,47.9,37.0,45.2,40.0,30.2,95,76,34,29.54,29.22,22,3,35,0.02
2013-10-16,56.7,45.5,32.7,49.5,41.7,31.7,97,87,73,29.68,29.54,12,4,24,0.10
2013-10-17,71.1,57.9,44.2,53.1,46.6,39.9,88,68,46,29.80,29.68,11,4,23,0.00
2013-10-18,74.8,61.6,48.4,57.1,48.0,41.3,89,62,47,30.04,29.55,17,9,36,0.01
2013-10-19,66.0,54.4,46.0,54.3,47.4,43.2,92,78,56,30.10,29.98,9,6,20,0.00
2013-10-20,75.0,57.7,45.3,56.6,46.0,41.1,87,67,37,30.07,29.87,7,2,17,0.00
2013-10-21,67.3,57.1,46.2,55.3,46.8,41.2,91,70,49,29.87,29.56,15,4,31,0.00
2013-10-22,60.4,54.9,51.8,51.2,48.6,46.2,92,80,61,29.71,29.50,13,5,25,0.00
2013-10-23,53.6,52.1,51.3,49.8,48.2,47.0,94,87,79,29.86,29.75,11,9,25,0.02
2013-10-24,78.1,63.6,51.1,58.7,52.1,45.1,94,69,41,29.74,29.20,20,8,41,0.00
2013-10-25,71.2,61.7,48.7,58.8,45.7,30.8,85,57,35,29.51,29.12,14,7,30,0.02
2013-10-26,64.6,55.5,44.2,48.7,43.3,37.2,79,64,45,29.55,29.36,21,11,47,0.00
2013-10-27,62.4,52.8,40.3,43.7,37.8,31.8,84,59,35,29.57,29.37,14,6,31,0.00
2013-10-28,58.3,48.5,38.5,44.5,39.9,34.1,89,73,50,29.90,29.57,11,4,22,0.02
2013-10-29,64.8,52.3,38.7,48.8,43.3,36.2,91,74,39,29.90,29.74,9,5,19,0.00
2013-10-30,64.0,52.5,37.2,56.0,47.2,35.7,94,83,66,29.80,29.57,8,2,19,0.05
2013-10-31,65.5,56.1,46.4,58.8,51.7,44.8,97,86,70,29.57,29.34,14,5,24,0.03
2013-11-1,59.4,49.1,42.1,50.7,45.2,40.8,96,87,70,29.71,29.53,8,3,18,0.14
2013-11-2,63.7,49.8,36.1,53.4,44.6,35.1,97,83,63,29.76,29.65,8,2,19,0.03
2013-11-3,61.5,54.2,45.3,52.8,48.8,42.9,93,83,68,29.92,29.77,12,6,29,0.01
2013-11-4,75.7,60.9,47.1,57.5,49.7,42.1,97,70,38,29.77,29.66,10,4,24,0.00
2013-11-5,75.0,59.7,45.0,56.0,48.7,41.3,90,70,41,29.98,29.71,9,3,20,0.00
2013-11-6,56.5,53.0,51.1,53.0,50.5,48.8,95,91,86,30.08,29.99,10,5,19,0.00
2013-11-7,68.7,56.8,44.8,57.9,52.3,43.4,97,86,64,30.01,29.80,9,3,20,0.00
2013-11-8,69.3,56.9,50.9,64.6,54.8,49.2,97,93,73,29.88,29.70,11,5,20,0.00
2013-11-9,61.9,54.3,50.9,56.4,51.6,49.7,96,91,80,29.92,29.76,9,3,26,0.00
2013-11-10,80.2,63.6,52.3,59.1,53.6,50.7,96,74,39,29.87,29.57,11,5,25,0.00
2013-11-11,58.5,53.5,50.2,50.9,47.1,44.1,87,79,73,30.34,29.87,9,4,22,0.00
2013-11-12,62.4,54.0,44.4,54.2,48.3,41.7,90,81,68,30.46,30.34,8,2,17,0.00
2013-11-13,61.3,51.0,38.1,52.8,45.7,36.5,96,83,68,30.45,30.24,10,4,22,0.00
2013-11-14,62.8,52.7,41.0,53.2,47.1,38.9,94,82,67,30.28,30.06,10,5,23,0.00
2013-11-15,65.5,56.4,50.4,58.1,51.9,47.1,94,85,76,30.07,29.73,12,6,25,0.00
2013-11-16,81.5,63.3,50.0,59.1,53.5,48.3,96,74,37,29.92,29.65,12,5,25,0.00
2013-11-17,63.9,57.0,50.4,57.9,52.6,48.3,94,85,74,29.99,29.93,8,2,18,0.00
2013-11-18,70.9,59.8,54.9,61.6,55.4,52.0,95,86,69,30.13,29.99,7,2,17,0.00
2013-11-19,66.4,58.4,51.6,60.2,55.1,50.2,97,89,76,30.18,30.04,13,5,30,0.00
2013-11-20,71.4,61.4,54.3,63.1,56.4,52.6,95,84,71,30.03,29.77,14,9,32,0.00
2013-11-21,76.6,58.2,48.9,63.5,54.5,47.8,97,88,61,29.97,29.72,16,4,25,0.13
2013-11-22,61.0,55.2,51.6,56.8,53.1,50.8,98,93,84,30.08,29.98,6,2,19,0.07
2013-11-23,67.8,59.9,55.0,61.6,56.6,53.2,96,89,78,30.08,29.89,7,2,16,0.00
2013-11-24,76.3,62.2,55.8,66.2,58.2,54.3,96,87,55,29.88,29.47,8,2,16,0.02
2013-11-25,59.7,54.3,49.3,57.1,52.1,48.5,97,92,76,29.68,29.47,12,4,19,0.46
2013-11-26,55.8,51.1,48.0,50.7,48.7,47.2,97,92,81,29.92,29.67,7,2,13,0.12
2013-11-27,58.6,53.3,49.5,55.1,50.9,47.8,96,92,84,29.99,29.88,7,2,17,0.05
2013-11-28,63.7,56.9,49.5,58.2,53.5,47.5,96,89,80,29.87,29.45,5,1,14,0.00
2013-11-29,72.9,59.6,41.5,60.9,51.4,40.5,98,77,48,29.45,29.09,13,6,31,0.00
2013-11-30,71.8,59.1,43.9,54.7,47.4,32.9,93,68,26,29.55,29.09,14,4,36,0.02
2013-12-1,68.5,53.1,39.6,52.7,44.7,37.7,95,75,39,30.05,29.53,14,3,30,0.01
2013-12-2,72.3,57.9,44.8,61.6,51.4,42.7,93,80,58,30.12,30.01,8,2,16,0.00
2013-12-3,74.8,61.6,46.8,62.8,55.9,45.4,96,83,63,30.12,29.89,9,2,18,0.00
2013-12-4,72.7,61.4,54.5,65.1,57.0,52.5,95,86,72,29.97,29.73,7,1,16,0.00
2013-12-5,72.1,61.5,52.2,65.5,58.4,51.1,97,90,78,29.75,29.56,7,2,16,0.00
2013-12-6,82.6,69.6,56.7,70.3,59.6,50.9,98,74,44,29.56,29.34,14,4,30,0.00
2013-12-7,77.2,67.7,59.4,53.0,48.4,42.4,76,51,36,29.33,29.25,18,7,37,0.00
2013-12-8,70.2,59.8,53.6,60.0,54.0,48.3,97,81,64,29.56,29.31,11,3,18,0.52
2013-12-9,68.9,59.7,52.5,61.1,54.9,51.1,96,85,66,29.80,29.57,7,2,17,0.00
2013-12-10,67.3,59.7,56.1,61.9,56.5,54.2,96,89,81,29.83,29.73,7,2,19,0.01
2013-12-11,75.6,62.5,56.3,63.5,57.4,53.9,96,84,61,29.76,29.64,6,1,17,0.03
2013-12-12,74.1,63.8,52.9,65.2,58.1,51.7,97,82,65,29.71,29.50,9,4,22,0.00
2013-12-13,74.1,62.2,54.7,65.5,57.3,52.9,94,84,70,29.89,29.62,11,3,18,0.01
2013-12-14,74.1,62.9,51.3,64.1,57.4,49.9,96,83,69,29.89,29.78,5,2,16,0.00
2013-12-15,72.9,61.6,51.1,65.2,58.1,50.0,98,89,74,29.91,29.75,9,2,18,0.00
2013-12-16,72.5,62.7,57.0,64.5,58.8,54.7,96,87,72,29.75,29.63,8,3,16,0.17
2013-12-17,62.4,55.8,52.5,57.3,52.8,49.5,97,90,76,29.89,29.69,13,4,26,0.30
2013-12-18,72.9,59.7,48.7,58.4,52.9,47.1,95,80,53,29.88,29.57,15,3,31,0.11
2013-12-19,63.3,54.7,50.5,53.8,50.1,47.3,96,85,67,30.01,29.76,16,5,26,0.34
2013-12-20,70.9,58.1,41.4,60.7,52.1,40.3,97,81,63,30.00,29.60,11,4,23,0.00
2013-12-21,73.9,58.9,48.4,57.1,51.0,41.0,95,78,36,29.71,29.42,16,5,31,0.12
2013-12-22,63.5,53.9,46.9,55.1,47.9,45.3,97,81,59,29.93,29.71,8,2,20,0.17
2013-12-23,73.4,59.1,45.7,60.8,51.3,43.7,94,77,50,29.92,29.74,5,1,14,0.00
2013-12-24,76.1,64.1,56.5,62.6,56.0,47.9,94,76,52,29.77,29.20,13,3,22,0.01
2013-12-25,70.9,59.8,51.3,60.6,53.8,47.2,97,82,55,29.62,29.26,13,3,28,0.71
2013-12-26,62.4,57.2,53.6,59.8,55.7,52.8,97,95,86,29.88,29.62,8,4,22,0.17
2013-12-27,59.5,57.5,54.0,58.7,56.0,51.9,97,95,84,29.94,29.87,10,4,17,0.13
2013-12-28,66.4,59.7,55.6,63.7,58.5,54.7,98,96,91,29.90,29.75,8,2,16,0.16
2013-12-29,65.8,62.2,59.5,65.0,61.1,58.7,98,96,93,29.77,29.51,4,1,14,0.19
2013-12-30,72.9,63.4,52.5,68.1,59.4,46.4,98,87,55,29.50,29.19,8,3,18,0.03
2013-12-31,72.9,59.7,46.8,56.5,45.4,40.0,92,62,35,29.61,29.34,6,2,16,0.00
2014-1-1,72.7,59.7,46.6,57.0,46.9,40.0,82,64,43,29.62,29.43,11,4,28,0.02
2014-1-2,74.1,62.8,55.6,55.2,48.0,42.1,73,59,45,29.52,29.27,14,6,30,0.00